Time;durP1;ratioP1;P1;durP2;ratioP2;P2;SDS_P1;SDS_P2;PMS_P1;PMS_P2;Temp;Humidity;BMP_temperature;BMP_pressure;BME280_temperature;BME280_humidity;BME280_pressure;Samples;Min_cycle;Max_cycle;Signal;HPM_P1;HPM_P2
2022/03/17 00:01:19;;;;;;;24.25;17.70;;;;;;;10.15;70.34;101848.53;5033353;28;20276;-60
2022/03/17 00:03:45;;;;;;;23.35;17.67;;;;;;;10.14;70.60;101844.19;5025306;28;20029;-59
2022/03/17 00:06:11;;;;;;;20.77;17.13;;;;;;;10.13;70.33;101842.44;5033260;28;20105;-59
2022/03/17 00:08:37;;;;;;;23.55;18.15;;;;;;;10.12;70.68;101839.88;5033851;28;20033;-60
2022/03/17 00:11:03;;;;;;;21.33;17.58;;;;;;;10.11;70.58;101841.69;5026518;28;20026;-60
2022/03/17 00:13:28;;;;;;;21.35;17.27;;;;;;;10.11;70.88;101836.38;5033409;28;20048;-59
2022/03/17 00:15:54;;;;;;;21.75;17.80;;;;;;;10.10;70.77;101833.81;5033239;28;20116;-59
2022/03/17 00:18:19;;;;;;;22.05;17.92;;;;;;;10.11;70.88;101838.19;5033250;28;20026;-60
2022/03/17 00:20:44;;;;;;;22.08;18.38;;;;;;;10.09;71.02;101829.44;5026181;28;20136;-60
2022/03/17 00:23:09;;;;;;;20.98;17.10;;;;;;;10.08;70.96;101839.22;5029549;28;20333;-60
2022/03/17 00:25:35;;;;;;;23.13;18.55;;;;;;;10.06;71.09;101833.16;5026005;28;20025;-59
2022/03/17 00:28:00;;;;;;;22.33;17.30;;;;;;;10.06;71.37;101833.16;5032657;28;20049;-59
2022/03/17 00:30:26;;;;;;;24.27;17.52;;;;;;;10.05;71.25;101839.38;5027335;28;20030;-60
2022/03/17 00:32:52;;;;;;;22.92;18.40;;;;;;;10.04;71.20;101840.31;5025482;28;20029;-60
2022/03/17 00:35:35;;;;;;;24.23;18.55;;;;;;;10.04;71.73;101831.50;5032867;28;20034;-60
2022/03/17 00:38:22;;;;;;;23.25;18.70;;;;;;;10.03;71.68;101843.09;5028406;28;20029;-60
2022/03/17 00:40:47;;;;;;;24.33;18.52;;;;;;;10.01;71.54;101840.53;5032506;28;20072;-60
2022/03/17 00:43:14;;;;;;;24.05;18.48;;;;;;;10.00;71.83;101847.63;5025625;28;20080;-60
2022/03/17 00:45:42;;;;;;;23.65;18.33;;;;;;;9.96;71.77;101843.44;5032726;28;20025;-60
2022/03/17 00:48:07;;;;;;;23.17;18.60;;;;;;;9.95;72.04;101844.38;5032671;28;20391;-59
2022/03/17 00:50:33;;;;;;;22.63;17.63;;;;;;;9.93;71.98;101848.94;5030502;28;20040;-60
2022/03/17 00:53:00;;;;;;;23.50;18.60;;;;;;;9.92;72.06;101844.56;5032666;28;20021;-60
2022/03/17 00:55:26;;;;;;;23.52;18.63;;;;;;;9.89;72.30;101850.06;5032944;28;20068;-59
2022/03/17 00:57:51;;;;;;;27.75;19.35;;;;;;;9.87;72.48;101857.22;5030957;28;20045;-60
2022/03/17 01:00:18;;;;;;;25.55;18.73;;;;;;;9.86;72.61;101852.00;5022819;28;20029;-60
2022/03/17 01:02:46;;;;;;;23.60;18.20;;;;;;;9.83;72.64;101853.06;5028555;28;20516;-60
2022/03/17 01:05:12;;;;;;;22.77;18.70;;;;;;;9.82;72.83;101852.22;5030713;28;20046;-60
2022/03/17 01:07:37;;;;;;;22.50;19.02;;;;;;;9.82;73.12;101848.69;5025848;28;20033;-60
2022/03/17 01:10:07;;;;;;;24.48;19.58;;;;;;;9.80;73.12;101850.56;5030510;28;20055;-59
2022/03/17 01:12:33;;;;;;;25.50;18.92;;;;;;;9.79;73.14;101852.38;5023536;28;20436;-59
2022/03/17 01:14:59;;;;;;;24.25;18.95;;;;;;;9.79;73.34;101852.38;5029452;28;20079;-60
2022/03/17 01:17:25;;;;;;;23.63;19.40;;;;;;;9.77;73.40;101848.94;5030262;28;20040;-59
2022/03/17 01:19:50;;;;;;;25.67;19.48;;;;;;;9.77;73.49;101843.63;5026954;28;20022;-60
2022/03/17 01:22:16;;;;;;;27.67;19.33;;;;;;;9.78;73.66;101839.19;5016339;28;20034;-60
2022/03/17 01:24:42;;;;;;;23.15;19.05;;;;;;;9.78;73.81;101842.69;5014438;28;20366;-60
2022/03/17 01:27:08;;;;;;;29.42;19.33;;;;;;;9.79;73.83;101841.78;5013624;28;20046;-60
2022/03/17 01:29:33;;;;;;;26.05;20.08;;;;;;;9.79;74.02;101840.91;5013578;28;20022;-60
2022/03/17 01:31:58;;;;;;;23.58;19.23;;;;;;;9.80;74.27;101855.88;5013293;28;20026;-60
2022/03/17 01:34:23;;;;;;;25.25;19.85;;;;;;;9.80;74.58;101851.41;5013367;28;20026;-60
2022/03/17 01:36:49;;;;;;;26.08;19.50;;;;;;;9.80;74.35;101842.63;5013036;28;20385;-60
2022/03/17 01:39:14;;;;;;;23.48;19.13;;;;;;;9.82;74.51;101840.72;5013374;28;20032;-60
2022/03/17 01:41:39;;;;;;;23.73;18.83;;;;;;;9.82;74.56;101840.72;5013254;28;20109;-59
2022/03/17 01:44:05;;;;;;;28.75;20.20;;;;;;;9.82;74.72;101844.25;5013102;28;20040;-60
2022/03/17 01:47:26;;;;;;;24.25;19.08;;;;;;;9.81;74.91;101842.53;5013457;28;20045;-59
2022/03/17 01:49:16;;;;;;;26.23;19.65;;;;;;;9.84;75.13;101849.44;5012983;28;20477;-60
2022/03/17 01:51:43;;;;;;;28.13;20.23;;;;;;;9.86;75.12;101854.66;5013070;28;20064;-60
2022/03/17 01:54:09;;;;;;;23.23;19.77;;;;;;;9.85;75.15;101852.97;5013026;28;20103;-60
2022/03/17 01:56:34;;;;;;;24.20;19.15;;;;;;;9.86;75.61;101849.34;5012957;28;20029;-61
2022/03/17 01:59:00;;;;;;;25.02;19.27;;;;;;;9.85;75.49;101847.66;5012838;28;20041;-60
2022/03/17 02:01:25;;;;;;;24.48;19.15;;;;;;;9.86;75.74;101841.41;5012662;28;20037;-59
2022/03/17 02:03:52;;;;;;;26.40;20.15;;;;;;;9.85;75.89;101835.25;5012732;28;20030;-60
2022/03/17 02:06:17;;;;;;;25.83;19.50;;;;;;;9.85;76.01;101840.56;5012861;28;20056;-59
2022/03/17 02:08:43;;;;;;;25.30;19.88;;;;;;;9.87;75.93;101845.78;5012122;28;20029;-59
2022/03/17 02:13:52;;;;;;;23.23;19.88;;;;;;;9.89;76.46;101849.19;5012614;28;20133;-59
2022/03/17 02:16:17;;;;;;;26.33;20.15;;;;;;;9.87;76.62;101851.94;5011244;28;20057;-60
2022/03/17 02:18:46;;;;;;;27.67;20.65;;;;;;;9.89;76.40;101855.38;5012480;28;20037;-60
2022/03/17 02:21:11;;;;;;;26.02;20.65;;;;;;;9.91;76.47;101857.91;5013023;28;20041;-60
2022/03/17 02:26:21;;;;;;;30.83;19.55;;;;;;;9.90;76.75;101867.69;4977399;28;1012062;-60
2022/03/17 02:28:46;;;;;;;26.65;20.17;;;;;;;9.91;76.68;101860.56;5013279;28;20038;-60
2022/03/17 02:31:12;;;;;;;26.92;20.77;;;;;;;9.92;76.73;101868.44;5013206;28;20037;-60
2022/03/17 02:33:40;;;;;;;26.42;20.48;;;;;;;9.92;77.09;101871.09;5013329;28;20030;-59
2022/03/17 02:36:08;;;;;;;29.80;20.52;;;;;;;9.94;77.33;101879.84;5013330;28;20056;-60
2022/03/17 02:38:33;;;;;;;29.05;20.52;;;;;;;9.95;77.94;101883.34;5012912;28;20369;-60
2022/03/17 02:40:59;;;;;;;28.80;21.90;;;;;;;9.99;78.96;101891.03;5013050;28;20065;-59
2022/03/17 02:43:24;;;;;;;30.15;22.85;;;;;;;10.01;79.15;101885.66;5013034;28;20385;-60
2022/03/17 02:45:50;;;;;;;32.55;24.10;;;;;;;10.07;80.19;101881.78;5028416;28;20041;-60
2022/03/17 02:48:18;;;;;;;40.22;26.95;;;;;;;10.12;80.71;101887.66;5012982;28;20037;-59
2022/03/17 02:50:45;;;;;;;33.08;25.80;;;;;;;10.17;81.59;101899.75;5013206;28;20029;-60
2022/03/17 02:53:11;;;;;;;40.00;27.80;;;;;;;10.23;82.94;101910.97;5013010;28;20030;-59
2022/03/17 02:55:39;;;;;;;38.58;29.05;;;;;;;10.28;83.93;101914.19;5013479;28;20029;-60
2022/03/17 02:58:06;;;;;;;39.03;28.10;;;;;;;10.32;84.75;101924.56;5012662;28;20496;-59
2022/03/17 03:00:32;;;;;;;35.45;27.48;;;;;;;10.33;85.11;101936.91;5013001;28;20038;-62
2022/03/17 03:02:57;;;;;;;32.15;25.98;;;;;;;10.33;84.99;101928.09;5012724;28;20071;-59
2022/03/17 03:05:23;;;;;;;35.67;24.38;;;;;;;10.32;84.97;101929.03;5012810;28;20034;-60
2022/03/17 03:07:48;;;;;;;30.90;23.08;;;;;;;10.32;86.09;101935.19;5012683;28;20054;-60
2022/03/17 03:10:14;;;;;;;26.08;20.98;;;;;;;10.28;86.08;101949.56;5012805;28;20052;-60
2022/03/17 03:12:40;;;;;;;21.42;17.02;;;;;;;10.23;87.33;101945.47;5012910;28;20030;-60
2022/03/17 03:15:06;;;;;;;21.88;17.42;;;;;;;10.17;87.56;101965.25;5013416;28;20026;-60
2022/03/17 03:17:32;;;;;;;23.42;17.10;;;;;;;10.12;88.16;101968.16;5012983;28;20022;-60
2022/03/17 03:19:57;;;;;;;19.58;16.23;;;;;;;10.09;88.30;101980.75;5012918;28;20038;-60
2022/03/17 03:22:23;;;;;;;18.13;15.65;;;;;;;10.06;88.41;101987.09;5016583;28;20053;-60
2022/03/17 03:24:48;;;;;;;16.92;15.13;;;;;;;10.02;88.66;101985.53;5015995;28;20060;-60
2022/03/17 03:27:13;;;;;;;17.65;14.55;;;;;;;9.97;88.95;101996.41;5016767;28;20053;-60
2022/03/17 03:29:40;;;;;;;15.93;13.50;;;;;;;9.94;89.20;102004.56;5016436;28;20380;-60
2022/03/17 03:32:05;;;;;;;14.63;13.13;;;;;;;9.91;88.58;102010.03;5016609;28;20030;-60
2022/03/17 03:34:32;;;;;;;13.90;12.45;;;;;;;9.82;88.95;102016.72;5016630;28;20033;-61
2022/03/17 03:39:42;;;;;;;15.48;13.88;;;;;;;9.70;88.88;102022.69;5016657;28;20045;-60
2022/03/17 03:42:09;;;;;;;16.60;13.88;;;;;;;9.66;89.18;102025.56;5016320;28;20030;-60
2022/03/17 03:44:35;;;;;;;16.08;14.13;;;;;;;9.60;88.81;102037.38;5015988;28;20033;-61
2022/03/17 03:47:01;;;;;;;16.25;14.10;;;;;;;9.56;88.99;102046.41;5016313;28;20504;-61
2022/03/17 03:49:26;;;;;;;15.85;14.25;;;;;;;9.52;88.55;102056.34;5016052;28;20038;-60
2022/03/17 03:51:52;;;;;;;16.30;14.15;;;;;;;9.47;88.28;102066.34;5016131;28;20179;-60
2022/03/17 03:54:18;;;;;;;18.02;15.10;;;;;;;9.42;88.04;102068.38;5015982;28;20037;-60
2022/03/17 03:56:48;;;;;;;17.73;14.73;;;;;;;9.40;88.08;102088.81;5016172;28;20034;-60
2022/03/17 03:59:22;;;;;;;17.50;15.07;;;;;;;9.36;87.85;102090.78;5015807;28;20518;-60
2022/03/17 04:01:53;;;;;;;23.92;17.70;;;;;;;9.28;87.74;102098.25;5016074;28;20117;-60
2022/03/17 04:04:19;;;;;;;24.77;19.02;;;;;;;9.22;87.28;102106.53;5015850;28;20037;-60
2022/03/17 04:06:47;;;;;;;25.10;18.58;;;;;;;9.15;87.61;102110.41;5015847;28;20033;-60
2022/03/17 04:09:13;;;;;;;24.50;18.02;;;;;;;9.11;87.51;102122.97;5015799;28;20044;-61
2022/03/17 04:11:43;;;;;;;25.67;19.23;;;;;;;9.08;87.72;102131.06;5015805;28;20064;-60
2022/03/17 04:14:10;;;;;;;26.25;18.70;;;;;;;9.04;87.60;102135.69;5015610;28;20053;-60
2022/03/17 04:16:35;;;;;;;26.10;18.95;;;;;;;8.97;87.67;102147.50;5015818;28;20032;-61
2022/03/17 04:19:01;;;;;;;26.90;19.17;;;;;;;8.88;88.14;102151.47;5015600;28;20026;-61
2022/03/17 04:21:27;;;;;;;24.23;18.33;;;;;;;8.84;87.80;102162.28;5015778;28;20029;-61
2022/03/17 04:23:52;;;;;;;24.40;17.73;;;;;;;8.78;87.83;102168.72;5015664;28;20041;-61
2022/03/17 04:26:17;;;;;;;20.38;15.27;;;;;;;8.73;87.59;102172.50;5015118;28;20053;-61
2022/03/17 04:28:43;;;;;;;22.48;15.65;;;;;;;8.71;86.98;102185.84;5015490;28;20440;-61
2022/03/17 04:31:08;;;;;;;20.55;16.15;;;;;;;8.68;87.00;102192.16;5015055;28;20079;-61
2022/03/17 04:33:34;;;;;;;24.52;15.63;;;;;;;8.63;86.12;102199.44;5015245;28;20427;-61
2022/03/17 04:35:59;;;;;;;26.02;15.85;;;;;;;8.57;86.07;102207.66;5015296;28;20032;-61
2022/03/17 04:38:25;;;;;;;27.58;16.08;;;;;;;8.51;86.13;102214.13;5015217;28;20022;-61
2022/03/17 04:40:51;;;;;;;25.30;16.00;;;;;;;8.47;86.58;102219.63;5015608;28;20061;-61
2022/03/17 04:43:17;;;;;;;24.73;15.95;;;;;;;8.43;86.43;102216.25;5015163;28;20041;-61
2022/03/17 04:45:44;;;;;;;26.00;15.25;;;;;;;8.39;85.92;102227.03;5015010;28;20034;-61
2022/03/17 04:48:09;;;;;;;23.13;13.98;;;;;;;8.35;85.41;102234.25;5015225;28;20022;-61
2022/03/17 04:50:35;;;;;;;22.95;12.43;;;;;;;8.31;85.44;102241.47;5014997;28;20041;-61
2022/03/17 04:55:43;;;;;;;19.88;11.70;;;;;;;8.23;84.48;102254.19;5014952;28;20045;-61
2022/03/17 04:58:09;;;;;;;19.40;12.20;;;;;;;8.21;84.61;102266.63;5014982;28;20097;-61
2022/03/17 05:00:34;;;;;;;24.83;13.05;;;;;;;8.19;84.11;102265.81;5014680;28;20080;-61
2022/03/17 05:02:59;;;;;;;22.83;12.65;;;;;;;8.14;83.85;102276.63;5014907;28;20026;-61
2022/03/17 05:05:24;;;;;;;28.08;12.98;;;;;;;8.13;84.09;102289.94;5015232;28;20456;-61
2022/03/17 05:07:50;;;;;;;24.63;12.90;;;;;;;8.13;84.61;102292.56;5015014;28;20033;-61
2022/03/17 05:10:15;;;;;;;23.02;12.27;;;;;;;8.12;83.98;102304.91;5014798;28;20101;-61
2022/03/17 05:12:40;;;;;;;19.60;11.05;;;;;;;8.11;83.73;102315.56;5014526;28;20033;-61
2022/03/17 05:15:06;;;;;;;20.50;10.68;;;;;;;8.09;83.57;102328.00;5014483;28;20514;-61
2022/03/17 05:17:32;;;;;;;17.77;10.15;;;;;;;8.06;82.60;102344.00;5014627;28;20034;-61
2022/03/17 05:19:57;;;;;;;20.23;9.80;;;;;;;8.04;82.96;102348.53;5014674;28;20021;-61
2022/03/17 05:22:23;;;;;;;17.05;7.95;;;;;;;8.00;81.66;102353.09;5014201;28;20056;-60
2022/03/17 05:24:50;;;;;;;21.90;7.95;;;;;;;7.96;81.98;102357.66;5014572;28;20029;-61
2022/03/17 05:27:15;;;;;;;17.88;6.97;;;;;;;7.93;80.74;102362.22;5014561;28;20046;-61
2022/03/17 05:29:40;;;;;;;12.88;5.55;;;;;;;7.92;80.82;102363.97;5014061;28;20061;-61
2022/03/17 05:32:06;;;;;;;12.88;5.20;;;;;;;7.89;80.53;102361.47;5014517;28;20036;-61
2022/03/17 05:34:32;;;;;;;12.80;4.72;;;;;;;7.89;80.09;102380.00;5014321;28;20390;-61
2022/03/17 05:36:57;;;;;;;19.35;5.10;;;;;;;7.84;79.92;102383.72;5029082;28;20033;-61
2022/03/17 05:39:22;;;;;;;13.90;5.03;;;;;;;7.82;80.01;102386.44;5014157;28;20022;-61
2022/03/17 05:41:48;;;;;;;14.88;5.90;;;;;;;7.82;80.45;102388.22;5014243;28;20046;-61
2022/03/17 05:44:13;;;;;;;15.32;5.82;;;;;;;7.81;80.12;102403.25;5013675;28;20498;-61
2022/03/17 05:46:38;;;;;;;13.68;4.85;;;;;;;7.81;79.26;102413.81;5014441;28;20037;-61
2022/03/17 05:49:03;;;;;;;12.90;4.03;;;;;;;7.80;78.86;102414.75;5014561;28;20018;-61
2022/03/17 05:51:28;;;;;;;11.23;4.47;;;;;;;7.77;79.30;102423.66;5014356;28;20025;-61
2022/03/17 05:53:54;;;;;;;14.47;5.33;;;;;;;7.76;78.76;102429.88;5012945;28;20038;-61
2022/03/17 05:56:19;;;;;;;12.05;4.90;;;;;;;7.72;78.55;102435.34;5013588;28;20767;-61
2022/03/17 05:58:44;;;;;;;16.05;5.32;;;;;;;7.69;78.97;102436.31;5013674;28;20030;-61
2022/03/17 06:01:11;;;;;;;17.20;5.25;;;;;;;7.69;79.19;102446.88;5013739;28;20025;-60
2022/03/17 06:03:37;;;;;;;14.32;4.68;;;;;;;7.69;79.22;102459.25;5028806;28;20029;-61
2022/03/17 06:06:03;;;;;;;13.55;4.75;;;;;;;7.70;79.48;102459.19;5013614;28;20025;-61
2022/03/17 06:08:29;;;;;;;10.43;4.82;;;;;;;7.69;79.72;102467.19;5013050;28;20040;-61
2022/03/17 06:10:54;;;;;;;11.25;4.80;;;;;;;7.67;79.58;102477.81;5013437;28;20030;-61
2022/03/17 06:13:20;;;;;;;21.92;4.97;;;;;;;7.66;79.83;102477.88;5013296;28;20044;-61
2022/03/17 06:15:45;;;;;;;15.93;5.45;;;;;;;7.64;80.57;102477.94;5013185;28;20034;-61
2022/03/17 06:18:11;;;;;;;14.32;5.07;;;;;;;7.65;80.90;102495.53;5012147;28;20042;-61
2022/03/17 06:20:36;;;;;;;15.80;4.60;;;;;;;7.62;81.06;102494.78;5013380;28;20088;-61
2022/03/17 06:23:04;;;;;;;11.10;4.50;;;;;;;7.62;81.62;102511.50;5013182;28;20034;-61
2022/03/17 06:25:32;;;;;;;16.95;4.70;;;;;;;7.60;81.69;102508.94;5013106;28;20033;-60
2022/03/17 06:27:57;;;;;;;10.57;4.65;;;;;;;7.60;81.27;102513.38;5013066;28;20488;-61
2022/03/17 06:30:25;;;;;;;11.57;4.97;;;;;;;7.59;80.91;102516.91;5013191;28;20084;-61
2022/03/17 06:32:51;;;;;;;14.15;5.03;;;;;;;7.59;81.45;102525.72;5013034;28;20033;-61
2022/03/17 06:35:18;;;;;;;12.82;4.78;;;;;;;7.60;80.71;102526.59;5013040;28;20017;-60
2022/03/17 06:37:45;;;;;;;9.43;4.28;;;;;;;7.56;80.39;102532.88;5012982;28;20110;-61
2022/03/17 06:40:11;;;;;;;11.38;4.28;;;;;;;7.55;80.00;102545.25;5012884;28;20074;-61
2022/03/17 06:42:36;;;;;;;8.55;4.03;;;;;;;7.54;80.23;102546.19;5012844;28;20022;-61
2022/03/17 06:45:02;;;;;;;11.85;4.53;;;;;;;7.54;80.28;102555.88;5012999;28;20079;-61
2022/03/17 06:47:28;;;;;;;9.75;4.70;;;;;;;7.53;80.33;102559.47;5012745;28;20018;-60
2022/03/17 06:49:53;;;;;;;10.70;4.22;;;;;;;7.52;79.05;102571.81;5012688;28;20076;-60
2022/03/17 06:52:18;;;;;;;13.90;4.65;;;;;;;7.51;79.87;102575.38;5013265;28;20033;-60
2022/03/17 06:54:44;;;;;;;13.25;4.95;;;;;;;7.51;79.73;102588.59;5012698;28;20029;-60
2022/03/17 06:57:10;;;;;;;9.88;4.28;;;;;;;7.50;79.62;102576.28;5012655;28;20038;-60
2022/03/17 06:59:35;;;;;;;12.13;4.30;;;;;;;7.49;78.84;102582.47;5012911;28;20117;-61
2022/03/17 07:02:00;;;;;;;10.70;3.70;;;;;;;7.47;78.68;102597.53;5011270;28;20057;-60
2022/03/17 07:04:26;;;;;;;9.93;3.05;;;;;;;7.49;78.23;102605.44;5012357;28;20041;-60
2022/03/17 07:06:51;;;;;;;15.00;3.50;;;;;;;7.51;78.70;102607.13;5012352;28;20372;-61
2022/03/17 07:09:16;;;;;;;9.88;3.53;;;;;;;7.54;79.04;102606.13;5012678;28;20026;-60
2022/03/17 07:11:44;;;;;;;10.25;3.28;;;;;;;7.52;78.25;102614.13;5012622;28;20484;-61
2022/03/17 07:14:09;;;;;;;9.60;2.78;;;;;;;7.54;77.89;102614.06;5012919;28;20117;-61
2022/03/17 07:16:34;;;;;;;10.02;2.85;;;;;;;7.52;77.15;102619.41;5012438;28;20110;-60
2022/03/17 07:19:00;;;;;;;8.02;2.72;;;;;;;7.51;77.85;102622.97;5012465;28;20030;-60
2022/03/17 07:21:25;;;;;;;8.90;2.72;;;;;;;7.50;77.15;102630.97;5012675;28;20069;-60
2022/03/17 07:23:50;;;;;;;11.07;3.05;;;;;;;7.51;77.68;102636.19;5012391;28;20026;-60
2022/03/17 07:26:15;;;;;;;9.05;2.67;;;;;;;7.51;77.73;102635.31;5027603;28;20026;-60
2022/03/17 07:28:41;;;;;;;8.27;3.05;;;;;;;7.49;77.77;102645.94;5012766;28;20056;-60
2022/03/17 07:31:06;;;;;;;12.57;3.15;;;;;;;7.52;78.27;102648.47;5012191;28;20029;-60
2022/03/17 07:33:32;;;;;;;10.85;3.25;;;;;;;7.48;78.07;102665.38;5012381;28;20041;-61
2022/03/17 07:35:57;;;;;;;11.27;2.72;;;;;;;7.51;78.52;102674.97;5012456;28;20026;-60
2022/03/17 07:38:22;;;;;;;14.63;3.03;;;;;;;7.52;78.53;102666.13;5011244;28;20133;-60
2022/03/17 07:40:48;;;;;;;12.65;3.17;;;;;;;7.53;78.00;102689.88;5012300;28;20022;-60
2022/03/17 07:43:13;;;;;;;13.55;2.53;;;;;;;7.54;78.13;102688.97;5012286;28;20481;-60
2022/03/17 07:45:38;;;;;;;12.77;3.15;;;;;;;7.57;78.06;102691.50;5012461;28;20030;-60
2022/03/17 07:48:05;;;;;;;18.98;3.15;;;;;;;7.60;78.47;102695.81;5012168;28;20032;-60
2022/03/17 07:50:32;;;;;;;11.75;2.80;;;;;;;7.63;77.73;102685.16;5012382;28;20377;-60
2022/03/17 07:52:58;;;;;;;10.23;2.30;;;;;;;7.65;78.00;102704.47;5011660;28;20444;-60
2022/03/17 07:55:23;;;;;;;13.10;2.47;;;;;;;7.68;77.31;102708.81;5014226;28;20121;-60
2022/03/17 07:57:49;;;;;;;9.38;2.15;;;;;;;7.70;76.87;102702.53;5014759;28;20419;-60
2022/03/17 08:00:14;;;;;;;16.38;2.83;;;;;;;7.75;77.49;102712.94;5031314;28;20118;-60
2022/03/17 08:02:43;;;;;;;15.35;2.67;;;;;;;7.75;76.30;102719.09;5023015;28;20040;-61
2022/03/17 08:05:10;;;;;;;10.85;2.10;;;;;;;7.76;75.64;102715.53;5031319;28;20049;-60
2022/03/17 08:07:35;;;;;;;12.98;2.75;;;;;;;7.77;76.00;102730.47;5033585;28;20030;-60
2022/03/17 08:10:02;;;;;;;8.77;2.30;;;;;;;7.81;75.07;102738.31;5015433;28;20527;-60
2022/03/17 08:12:28;;;;;;;12.05;2.30;;;;;;;7.80;74.68;102736.59;5015746;28;20025;-60
2022/03/17 08:14:54;;;;;;;12.57;2.33;;;;;;;7.81;75.20;102735.66;5015157;28;20034;-60
2022/03/17 08:17:19;;;;;;;10.32;2.50;;;;;;;7.83;74.88;102745.28;5015151;28;20037;-60
2022/03/17 08:19:45;;;;;;;10.82;1.88;;;;;;;7.84;74.06;102751.44;5014513;28;20030;-61
2022/03/17 08:22:10;;;;;;;8.82;2.22;;;;;;;7.87;73.93;102751.34;5013893;28;20036;-59
2022/03/17 08:24:35;;;;;;;14.98;2.50;;;;;;;7.91;74.14;102766.19;5014813;28;20064;-60
2022/03/17 08:27:02;;;;;;;5.70;2.03;;;;;;;7.95;72.69;102767.81;5014742;28;20057;-60
2022/03/17 08:29:31;;;;;;;8.60;2.03;;;;;;;8.00;71.60;102781.75;5015329;28;20032;-60
2022/03/17 08:31:56;;;;;;;13.77;2.00;;;;;;;8.04;71.78;102778.06;5013678;28;20057;-60
2022/03/17 08:34:21;;;;;;;11.15;2.63;;;;;;;8.07;69.46;102779.75;5013077;28;20030;-60
2022/03/17 08:36:49;;;;;;;9.48;2.17;;;;;;;8.13;70.50;102787.47;5013357;28;20038;-60
2022/03/17 08:39:15;;;;;;;7.68;2.10;;;;;;;8.21;69.83;102796.03;5014562;28;20038;-60
2022/03/17 08:41:40;;;;;;;10.98;2.20;;;;;;;8.25;69.38;102800.28;5014650;28;20046;-60
2022/03/17 08:44:06;;;;;;;11.32;2.80;;;;;;;8.28;68.47;102809.91;5014682;28;20033;-60
2022/03/17 08:49:24;;;;;;;9.60;2.30;;;;;;;8.38;67.74;102821.03;5015108;28;20093;-61
2022/03/17 08:52:01;;;;;;;12.73;2.65;;;;;;;8.42;67.61;102815.56;5014724;28;20050;-61
2022/03/17 08:54:30;;;;;;;11.40;2.28;;;;;;;8.44;67.83;102821.72;5014943;28;20088;-62
2022/03/17 08:57:01;;;;;;;8.00;2.00;;;;;;;8.48;66.88;102825.97;5025171;28;20033;-61
2022/03/17 08:59:31;;;;;;;8.27;2.10;;;;;;;8.54;67.20;102819.56;5031979;28;20108;-61
2022/03/17 09:02:01;;;;;;;13.18;2.25;;;;;;;8.60;66.72;102831.75;5017696;28;20046;-61
2022/03/17 09:04:28;;;;;;;11.40;2.22;;;;;;;8.64;66.80;102825.41;5020540;28;20044;-61
2022/03/17 09:06:59;;;;;;;11.35;2.10;;;;;;;8.67;66.11;102836.75;5050198;28;20056;-61
2022/03/17 09:09:26;;;;;;;11.88;2.53;;;;;;;8.71;65.33;102834.88;5034967;28;20077;-61
2022/03/17 09:11:51;;;;;;;12.95;2.72;;;;;;;8.73;64.67;102842.75;5031306;28;20043;-61
2022/03/17 09:14:16;;;;;;;12.48;2.25;;;;;;;8.75;64.87;102844.44;5034416;28;20029;-61
2022/03/17 09:16:41;;;;;;;11.75;2.13;;;;;;;8.77;64.73;102845.22;5034794;28;20065;-61
2022/03/17 09:19:07;;;;;;;10.35;2.30;;;;;;;8.77;64.63;102847.03;5023888;28;20030;-61
2022/03/17 09:21:32;;;;;;;11.02;2.63;;;;;;;8.80;64.87;102862.81;5015068;28;20037;-61
2022/03/17 09:23:59;;;;;;;15.00;2.50;;;;;;;8.85;65.38;102859.06;5014948;28;20057;-61
2022/03/17 09:26:25;;;;;;;6.45;2.40;;;;;;;8.89;65.12;102870.41;5014404;28;20469;-61
2022/03/17 09:28:51;;;;;;;9.85;2.25;;;;;;;8.95;65.12;102875.50;5014684;28;20032;-61
2022/03/17 09:31:16;;;;;;;9.88;2.33;;;;;;;8.99;65.25;102868.28;5014271;28;20108;-61
2022/03/17 09:33:42;;;;;;;9.25;2.75;;;;;;;9.02;63.59;102874.31;5013984;28;20117;-61
2022/03/17 09:36:07;;;;;;;12.77;2.20;;;;;;;9.06;63.64;102875.09;5014292;28;20592;-61
2022/03/17 09:38:32;;;;;;;14.63;2.80;;;;;;;9.15;64.21;102889.78;5014186;28;20025;-61
2022/03/17 09:40:58;;;;;;;10.63;2.40;;;;;;;9.19;63.23;102899.34;5029118;28;20373;-61
2022/03/17 09:43:28;;;;;;;10.50;2.10;;;;;;;9.18;63.01;102895.84;5012194;28;20029;-61
2022/03/17 09:45:55;;;;;;;9.48;2.20;;;;;;;9.29;63.91;102894.56;5011861;28;20029;-61
2022/03/17 09:48:23;;;;;;;12.02;2.42;;;;;;;9.30;62.83;102901.59;5025313;28;20444;-61
2022/03/17 09:50:55;;;;;;;10.73;2.50;;;;;;;9.35;63.22;102900.50;5033080;28;20438;-61
2022/03/17 09:53:21;;;;;;;9.77;2.47;;;;;;;9.37;62.75;102897.78;5033633;28;20104;-61
2022/03/17 09:55:46;;;;;;;11.07;2.55;;;;;;;9.43;63.65;102911.66;5026479;28;20136;-61
2022/03/17 09:58:11;;;;;;;11.13;2.35;;;;;;;9.47;62.46;102914.22;5032516;28;20041;-61
2022/03/17 10:00:49;;;;;;;9.60;2.10;;;;;;;9.51;62.53;102913.16;5032823;28;20079;-61
2022/03/17 10:03:16;;;;;;;9.05;2.00;;;;;;;9.55;62.81;102930.69;5033472;28;20396;-61
2022/03/17 10:05:47;;;;;;;21.27;2.80;;;;;;;9.56;62.58;102930.63;5013747;28;20042;-61
2022/03/17 10:08:14;;;;;;;11.10;2.08;;;;;;;9.62;62.69;102941.00;5013510;28;20029;-61
2022/03/17 10:10:41;;;;;;;9.98;2.42;;;;;;;9.60;62.32;102944.63;5013371;28;20052;-60
2022/03/17 10:13:32;;;;;;;13.55;2.50;;;;;;;9.63;62.42;102944.53;5013157;28;20026;-61
2022/03/17 10:16:08;;;;;;;9.23;2.20;;;;;;;9.71;62.18;102954.81;5012845;28;20045;-61
2022/03/17 10:18:37;;;;;;;9.32;1.83;;;;;;;9.72;61.71;102948.59;5013098;28;20032;-61
2022/03/17 10:21:24;;;;;;;17.75;2.17;;;;;;;9.80;62.33;102949.16;5012026;28;20046;-61
2022/03/17 10:23:55;;;;;;;11.07;2.38;;;;;;;9.91;62.71;102959.34;5013019;28;20488;-61
2022/03/17 10:26:47;;;;;;;12.27;2.03;;;;;;;9.93;61.82;102966.34;5013001;28;20128;-61
2022/03/17 10:29:24;;;;;;;11.02;2.35;;;;;;;10.02;61.73;102970.41;5013054;28;20034;-61
2022/03/17 10:31:50;;;;;;;8.55;2.22;;;;;;;10.04;60.61;102979.16;5024093;28;20049;-61
2022/03/17 10:34:15;;;;;;;13.45;2.53;;;;;;;10.08;60.69;102980.78;5032726;28;20022;-60
2022/03/17 10:36:41;;;;;;;7.97;2.00;;;;;;;10.15;60.60;102992.03;5032640;28;20041;-61
2022/03/17 10:39:09;;;;;;;14.43;2.70;;;;;;;10.22;60.83;102995.28;5013807;28;20033;-61
2022/03/17 10:41:43;;;;;;;8.63;2.30;;;;;;;10.21;60.21;102989.13;5012807;28;20558;-61
2022/03/17 10:44:13;;;;;;;8.95;2.42;;;;;;;10.24;59.99;102990.78;5012328;28;20432;-61
2022/03/17 10:46:53;;;;;;;7.80;2.20;;;;;;;10.26;60.67;102997.78;5012586;28;20037;-61
2022/03/17 10:49:18;;;;;;;10.52;2.60;;;;;;;10.28;59.38;103003.03;5012515;28;20122;-61
2022/03/17 10:51:44;;;;;;;13.95;2.83;;;;;;;10.24;59.42;103010.25;5012513;28;20117;-61
2022/03/17 10:54:18;;;;;;;11.82;2.50;;;;;;;10.21;60.18;103014.81;5012590;28;20104;-60
2022/03/17 10:57:05;;;;;;;10.68;2.70;;;;;;;10.22;60.14;103021.84;5012290;28;20113;-61
2022/03/17 10:59:38;;;;;;;6.30;2.30;;;;;;;10.15;59.09;103030.06;5012638;28;20030;-62
2022/03/17 11:02:08;;;;;;;11.48;2.30;;;;;;;10.12;59.92;103038.13;5013615;28;20100;-61
2022/03/17 11:04:38;;;;;;;8.30;2.10;;;;;;;10.10;59.28;103033.84;5011971;28;20488;-61
2022/03/17 11:07:10;;;;;;;8.80;1.98;;;;;;;10.13;59.31;103047.84;5023132;28;20395;-61
2022/03/17 11:09:38;;;;;;;7.40;1.80;;;;;;;10.15;56.82;103051.31;5030152;28;20072;-61
2022/03/17 11:12:05;;;;;;;9.07;1.90;;;;;;;10.24;57.56;103058.06;5012131;28;20018;-60
2022/03/17 11:14:31;;;;;;;8.32;1.88;;;;;;;10.31;56.93;103058.69;5012929;28;20459;-61
2022/03/17 11:17:00;;;;;;;7.53;1.88;;;;;;;10.38;56.76;103054.88;5012907;28;20022;-62
2022/03/17 11:19:26;;;;;;;5.65;2.03;;;;;;;10.53;56.52;103066.66;5012795;28;20465;-60
2022/03/17 11:22:08;;;;;;;5.30;1.85;;;;;;;10.58;56.90;103054.06;5012551;28;20062;-61
2022/03/17 11:24:34;;;;;;;6.88;2.42;;;;;;;10.77;56.61;103067.44;5012978;28;20026;-61
2022/03/17 11:27:07;;;;;;;12.20;2.10;;;;;;;10.82;55.81;103068.09;5012262;28;20057;-61
2022/03/17 11:29:44;;;;;;;5.22;2.00;;;;;;;10.78;54.98;103069.19;5012530;28;20064;-61
2022/03/17 11:32:29;;;;;;;6.68;2.28;;;;;;;10.89;56.88;103071.38;5012889;28;20113;-61
2022/03/17 11:35:09;;;;;;;8.98;2.17;;;;;;;10.95;56.38;103067.59;5012480;28;20037;-61